Dover, MN

2:00 PM CDT on September 22, 2014 (GMT -0500)
Minnesota | Change Station
CLOSE
Current Station
Personal Weather Station
Location: Altura, MN
Elevation: 1165 ft
Nearby Weather Stations

Elev 1165 ft 44.07 °N, 91.94 °W | Updated 9 seconds ago

Partly Cloudy
Partly Cloudy
68.2 °F
Feels Like 68.2 °F
N
4.5
Wind Variable Wind from WNW
Gusts 7.6 mph

Today
High -- | Low -- °F
--% Chance of Precip.
Yesterday
High -- | Low -- °F
Precip. -- in
6:55 AM 7:05 PM
Waning Crescent, 2% visible
Pressure 30.25 in
Visibility 10.0 miles
Clouds Clear
Dew Point 51 °F
Humidity 55%
Rainfall 0.00 in
Snow Depth Not available.
UV 6 out of 12
Pollen 3.00 out of 12
Air Quality Not available.
Flu Activity Not available.
METAR K9MN 221852Z AUTO 00000KT 10SM CLR 19/09 A3025 RMK AO1 T01940085

More Conditions Fewer Conditions

Pressure 30.25 in
Visibility 10.0 miles
Clouds Clear
Dew Point 51 °F
Humidity 55%
Rainfall 0.00 in
Snow Depth Not available.
UV 6 out of 12
Pollen 3.00 out of 12
Air Quality Not available.
Flu Activity Not available.
METAR K9MN 221852Z AUTO 00000KT 10SM CLR 19/09 A3025 RMK AO1 T01940085

More Conditions Fewer Conditions

10-Day Weather Forecast

Almanac

Astronomy

Sep. 22, 2014 Rise Set
Actual Time 6:55 AM CDT 7:05 PM CDT
Civil Twilight 6:26 AM CDT 7:34 PM CDT
Nautical Twilight 5:53 AM CDT 8:08 PM CDT
Astronomical Twilight 5:18 AM CDT 8:42 PM CDT
Moon 5:22 AM CDT 6:14 PM CDT
Length of Visible Light 13h 07m
Length of Day
12h 10m
Tomorrow will be 3m 0s shorter.
Waning Crescent, 2% of the Moon is Illuminated
Today
Waning Crescent
Sep 24
New
Oct 1
First Quarter
Oct 8
Full
Oct 15
Last Quarter

Today's Extremes

State Highs State Lows

Community

WunderPhotos

Upload Photos

1,755,516 photos uploaded!

WunderBlogs® & News

Nearby

Snow Depth

Station Depth Elevation
No new snow has been reported.

Earthquake Activity

City Distance Mag. Time & Date
No recent earthquake activity has been reported nearby.
Minimum magnitude displayed is 2.5.

Coastal Water Temperatures

Place Temperature
No Stations Reporting

Nearby Weather Stations